createdAt,value
2023-02-06T00:00:33.040Z,16.40
2023-02-06T00:03:40.735Z,14.20
2023-02-06T00:06:29.265Z,15.70
2023-02-06T00:09:17.396Z,14.20
2023-02-06T00:12:05.689Z,14.00
2023-02-06T00:14:53.925Z,11.30
2023-02-06T00:17:42.503Z,12.60
2023-02-06T00:20:30.646Z,14.70
2023-02-06T00:23:18.629Z,14.30
2023-02-06T00:26:08.004Z,11.10
2023-02-06T00:28:55.712Z,12.70
2023-02-06T00:31:44.990Z,14.30
2023-02-06T00:34:33.527Z,15.90
2023-02-06T00:37:21.744Z,15.20
2023-02-06T00:40:10.463Z,14.20
2023-02-06T00:42:58.899Z,12.50
2023-02-06T00:45:53.039Z,12.50
2023-02-06T00:48:42.200Z,12.90
2023-02-06T00:51:30.622Z,14.80
2023-02-06T00:54:20.936Z,16.20
2023-02-06T00:57:09.073Z,10.90
2023-02-06T00:59:56.961Z,14.70
2023-02-06T01:02:46.548Z,14.00
2023-02-06T01:05:35.898Z,15.80
2023-02-06T01:08:23.983Z,12.30
2023-02-06T01:11:19.744Z,12.20
2023-02-06T01:14:07.878Z,12.60
2023-02-06T01:16:55.825Z,15.40
2023-02-06T01:19:44.511Z,15.10
2023-02-06T01:22:35.595Z,13.60
2023-02-06T01:25:23.359Z,13.70
2023-02-06T01:28:11.619Z,14.10
2023-02-06T01:30:59.746Z,13.20
2023-02-06T01:33:49.439Z,11.00
2023-02-06T01:36:37.230Z,14.30
2023-02-06T01:39:25.147Z,12.80
2023-02-06T01:42:13.867Z,13.00
2023-02-06T01:45:26.747Z,14.20
2023-02-06T01:48:38.887Z,16.20
2023-02-06T01:51:29.645Z,12.60
2023-02-06T01:54:17.596Z,13.90
2023-02-06T01:57:10.861Z,13.00
2023-02-06T02:00:06.308Z,11.40
2023-02-06T02:02:59.630Z,13.40
2023-02-06T02:05:48.402Z,13.90
2023-02-06T02:08:47.152Z,13.10
2023-02-06T02:11:41.947Z,13.20
2023-02-06T02:14:30.392Z,13.50
2023-02-06T02:17:56.205Z,12.30
2023-02-06T02:20:53.282Z,14.60
2023-02-06T02:24:01.734Z,15.30
2023-02-06T02:27:38.707Z,11.90
2023-02-06T02:31:20.333Z,11.20
2023-02-06T02:34:31.165Z,11.10
2023-02-06T02:37:43.208Z,12.50
2023-02-06T02:40:54.928Z,15.70
2023-02-06T02:44:10.269Z,9.70
2023-02-06T02:47:03.693Z,11.40
2023-02-06T02:49:53.250Z,15.00
2023-02-06T02:52:41.835Z,11.40
2023-02-06T02:55:29.796Z,11.70
2023-02-06T02:58:25.645Z,11.60
2023-02-06T03:01:19.835Z,10.90
2023-02-06T03:04:18.031Z,9.30
2023-02-06T03:07:45.027Z,10.40
2023-02-06T03:11:12.284Z,10.70
2023-02-06T03:14:15.586Z,12.40
2023-02-06T03:17:14.214Z,14.20
2023-02-06T03:20:07.902Z,13.30
2023-02-06T03:22:57.844Z,11.50
2023-02-06T03:25:50.682Z,9.40
2023-02-06T03:28:47.838Z,11.90
2023-02-06T03:31:58.491Z,10.20
2023-02-06T03:35:07.432Z,11.20
2023-02-06T03:37:55.835Z,12.20
2023-02-06T03:40:47.480Z,11.40
2023-02-06T03:43:35.396Z,10.00
2023-02-06T03:46:24.164Z,11.30
2023-02-06T03:49:16.084Z,10.10
2023-02-06T03:52:14.981Z,10.30
2023-02-06T03:55:10.349Z,8.90
2023-02-06T03:58:08.027Z,12.20
2023-02-06T04:00:56.214Z,9.10
2023-02-06T04:03:44.172Z,9.10
2023-02-06T04:06:32.439Z,10.30
2023-02-06T04:09:20.241Z,12.10
2023-02-06T04:12:09.374Z,13.40
2023-02-06T04:14:57.378Z,11.50
2023-02-06T04:17:58.745Z,10.10
2023-02-06T04:20:47.686Z,11.70
2023-02-06T04:23:35.750Z,11.00
2023-02-06T04:26:23.683Z,12.90
2023-02-06T04:29:12.925Z,13.40
2023-02-06T04:32:02.420Z,10.70
2023-02-06T04:34:50.479Z,13.70
2023-02-06T04:37:38.836Z,12.50
2023-02-06T04:40:27.201Z,14.80
2023-02-06T04:43:15.210Z,11.80
2023-02-06T04:46:03.364Z,10.00
2023-02-06T04:48:51.721Z,9.60
2023-02-06T04:51:40.049Z,9.90
2023-02-06T04:54:27.746Z,13.70
2023-02-06T04:57:15.748Z,12.80
2023-02-06T05:00:16.881Z,13.70
2023-02-06T05:03:07.334Z,14.80
2023-02-06T05:06:00.667Z,11.60
2023-02-06T05:08:48.628Z,13.50
2023-02-06T05:11:36.685Z,12.70
2023-02-06T05:14:24.204Z,11.70
2023-02-06T05:17:14.909Z,15.30
2023-02-06T05:20:02.678Z,18.20
2023-02-06T05:22:50.687Z,14.00
2023-02-06T05:25:40.780Z,16.90
2023-02-06T05:28:35.836Z,11.90
2023-02-06T05:31:26.973Z,13.10
2023-02-06T05:34:14.787Z,13.30
2023-02-06T05:37:05.075Z,12.70
2023-02-06T05:39:53.100Z,17.10
2023-02-06T05:42:41.194Z,15.40
2023-02-06T05:45:29.159Z,13.40
2023-02-06T05:48:17.658Z,16.80
2023-02-06T05:51:05.845Z,12.20
2023-02-06T05:53:53.497Z,12.90
2023-02-06T05:56:41.255Z,15.10
2023-02-06T05:59:29.247Z,14.00
2023-02-06T06:02:17.144Z,14.70
2023-02-06T06:05:05.638Z,17.20
2023-02-06T06:07:53.760Z,17.40
2023-02-06T06:10:42.028Z,14.50
2023-02-06T06:13:30.430Z,13.60
2023-02-06T06:16:18.406Z,12.00
2023-02-06T06:19:07.061Z,13.90
2023-02-06T06:21:57.853Z,15.50
2023-02-06T06:24:46.482Z,15.50
2023-02-06T06:27:34.824Z,13.10
2023-02-06T06:30:22.722Z,16.70
2023-02-06T06:33:11.049Z,13.80
2023-02-06T06:35:59.608Z,14.30
2023-02-06T06:38:47.518Z,13.00
2023-02-06T06:41:35.551Z,16.10
2023-02-06T06:44:24.217Z,16.30
2023-02-06T06:47:14.854Z,18.70
2023-02-06T06:50:02.745Z,16.80
2023-02-06T06:52:50.531Z,15.20
2023-02-06T06:55:38.692Z,16.80
2023-02-06T06:58:26.422Z,15.20
2023-02-06T07:01:15.004Z,16.10
2023-02-06T07:04:03.247Z,14.30
2023-02-06T07:06:51.781Z,14.70
2023-02-06T07:09:39.771Z,17.10
2023-02-06T07:12:28.341Z,13.60
2023-02-06T07:15:16.456Z,16.20
2023-02-06T07:18:04.465Z,15.50
2023-02-06T07:20:54.388Z,13.70
2023-02-06T07:23:42.801Z,13.20
2023-02-06T07:26:31.068Z,12.00
2023-02-06T07:29:19.406Z,14.20
2023-02-06T07:32:07.920Z,14.20
2023-02-06T07:34:55.591Z,16.90
2023-02-06T07:37:43.732Z,16.60
2023-02-06T07:40:43.981Z,11.90
2023-02-06T07:43:32.518Z,16.50
2023-02-06T07:46:20.341Z,14.80
2023-02-06T07:49:08.774Z,15.60
2023-02-06T07:51:57.065Z,15.70
2023-02-06T07:54:46.319Z,18.30
2023-02-06T07:57:37.290Z,18.70
2023-02-06T08:00:25.487Z,16.30
2023-02-06T08:03:15.920Z,20.00
2023-02-06T08:06:13.277Z,19.10
2023-02-06T08:09:00.904Z,15.10
2023-02-06T08:11:50.804Z,20.40
2023-02-06T08:14:39.221Z,18.50
2023-02-06T08:17:28.130Z,15.30
2023-02-06T08:20:20.719Z,19.80
2023-02-06T08:23:10.464Z,17.70
2023-02-06T08:26:08.016Z,18.30
2023-02-06T08:28:58.332Z,17.40
2023-02-06T08:31:49.263Z,20.60
2023-02-06T08:34:40.620Z,20.10
2023-02-06T08:37:29.317Z,17.70
2023-02-06T08:40:17.562Z,18.10
2023-02-06T08:43:07.697Z,19.20
2023-02-06T08:45:57.523Z,18.90
2023-02-06T08:48:45.845Z,19.80
2023-02-06T08:51:35.657Z,19.70
2023-02-06T08:54:24.020Z,19.80
2023-02-06T08:57:13.068Z,17.30
2023-02-06T09:00:00.845Z,14.30
2023-02-06T09:02:48.975Z,17.50
2023-02-06T09:05:43.627Z,18.00
2023-02-06T09:08:32.151Z,16.60
2023-02-06T09:11:22.498Z,16.10
2023-02-06T09:14:17.713Z,17.50
2023-02-06T09:17:05.967Z,18.20
2023-02-06T09:19:53.664Z,18.00
2023-02-06T09:22:41.375Z,16.20
2023-02-06T09:25:29.508Z,15.90
2023-02-06T09:28:18.040Z,14.70
2023-02-06T09:31:09.214Z,15.50
2023-02-06T09:34:03.323Z,14.80
2023-02-06T09:36:54.598Z,14.30
2023-02-06T09:39:42.883Z,13.50
2023-02-06T09:42:39.054Z,16.00
2023-02-06T09:45:30.137Z,14.20
2023-02-06T09:48:23.838Z,13.10
2023-02-06T09:51:40.097Z,16.20
2023-02-06T09:54:54.746Z,14.00
2023-02-06T09:58:06.559Z,16.20
2023-02-06T10:01:51.704Z,15.40
2023-02-06T10:04:56.576Z,15.50
2023-02-06T10:08:04.211Z,14.30
2023-02-06T10:10:55.604Z,16.10
2023-02-06T10:13:54.153Z,14.70
2023-02-06T10:16:47.390Z,13.00
2023-02-06T10:19:48.318Z,12.70
2023-02-06T10:23:09.955Z,13.70
2023-02-06T10:26:19.193Z,13.00
2023-02-06T10:29:16.906Z,13.30
2023-02-06T10:32:42.832Z,13.10
2023-02-06T10:36:08.699Z,13.00
2023-02-06T10:39:37.117Z,14.30
2023-02-06T10:42:58.128Z,14.60
2023-02-06T10:46:20.563Z,23.80
2023-02-06T10:49:44.309Z,17.50
2023-02-06T10:52:37.548Z,15.50
2023-02-06T10:55:31.120Z,14.10
2023-02-06T10:58:42.676Z,12.00
2023-02-06T11:01:39.581Z,15.20
2023-02-06T11:04:39.116Z,17.10
2023-02-06T11:07:48.918Z,15.70
2023-02-06T11:10:40.612Z,18.50
2023-02-06T11:13:36.974Z,18.70
2023-02-06T11:16:33.929Z,16.70
2023-02-06T11:19:27.830Z,19.10
2023-02-06T11:22:27.492Z,18.00
2023-02-06T11:25:27.771Z,18.80
2023-02-06T11:28:23.374Z,16.70
2023-02-06T11:31:13.222Z,19.00
2023-02-06T11:34:04.655Z,18.80
2023-02-06T11:36:57.145Z,19.10
2023-02-06T11:39:45.145Z,19.00
2023-02-06T11:42:38.034Z,21.90
2023-02-06T11:45:32.658Z,19.70
2023-02-06T11:49:21.748Z,20.60
2023-02-06T11:52:35.527Z,21.00
2023-02-06T11:55:27.044Z,20.30
2023-02-06T11:58:14.570Z,18.10
2023-02-06T12:01:11.445Z,24.20
2023-02-06T12:03:59.835Z,18.90
2023-02-06T12:06:47.680Z,20.70
2023-02-06T12:09:35.670Z,17.10
2023-02-06T12:12:32.945Z,22.00
2023-02-06T12:15:45.957Z,16.00
2023-02-06T12:18:42.357Z,18.60
2023-02-06T12:22:02.342Z,17.90
2023-02-06T12:24:56.813Z,20.60
2023-02-06T12:27:45.135Z,16.10
2023-02-06T12:31:12.014Z,19.30
2023-02-06T12:34:54.049Z,15.80
2023-02-06T12:37:52.008Z,16.20
2023-02-06T12:41:10.479Z,15.70
2023-02-06T12:44:12.202Z,12.50
2023-02-06T12:47:16.659Z,14.30
2023-02-06T12:50:23.006Z,15.90
2023-02-06T12:53:35.491Z,12.00
2023-02-06T12:56:42.860Z,11.50
2023-02-06T13:00:03.096Z,12.50
2023-02-06T13:03:08.732Z,10.70
2023-02-06T13:06:25.438Z,11.30
2023-02-06T13:09:31.162Z,11.20
2023-02-06T13:12:29.469Z,11.50
2023-02-06T13:15:26.637Z,13.10
2023-02-06T13:18:42.136Z,12.30
2023-02-06T13:21:35.305Z,11.70
2023-02-06T13:24:23.049Z,13.70
2023-02-06T13:27:15.583Z,13.50
2023-02-06T13:30:37.448Z,14.10
2023-02-06T13:33:38.209Z,13.60
2023-02-06T13:36:50.175Z,14.30
2023-02-06T13:39:38.129Z,12.90
2023-02-06T13:42:57.102Z,13.70
2023-02-06T13:45:45.102Z,13.30
2023-02-06T13:48:47.853Z,15.00
2023-02-06T13:52:14.187Z,13.60
2023-02-06T13:55:17.401Z,15.10
2023-02-06T13:58:36.866Z,14.40
2023-02-06T14:01:31.295Z,12.80
2023-02-06T14:04:25.180Z,13.80
2023-02-06T14:08:01.064Z,16.00
2023-02-06T14:11:24.497Z,13.50
2023-02-06T14:14:47.095Z,12.90
2023-02-06T14:18:00.929Z,14.10
2023-02-06T14:21:23.985Z,14.40
2023-02-06T14:24:33.853Z,17.20
2023-02-06T14:28:02.308Z,15.30
2023-02-06T14:31:01.448Z,15.80
2023-02-06T14:34:30.058Z,15.40
2023-02-06T14:37:38.472Z,17.60
2023-02-06T14:40:36.601Z,18.80
2023-02-06T14:43:29.619Z,14.70
2023-02-06T14:47:32.636Z,16.70
2023-02-06T14:51:03.162Z,16.30
2023-02-06T14:53:58.897Z,13.40
2023-02-06T14:56:46.729Z,14.50
2023-02-06T14:59:34.644Z,15.50
2023-02-06T15:02:35.374Z,16.40
2023-02-06T15:05:26.256Z,17.20
2023-02-06T15:08:22.316Z,15.80
2023-02-06T15:11:22.760Z,14.50
2023-02-06T15:14:26.207Z,13.40
2023-02-06T15:17:26.305Z,16.00
2023-02-06T15:20:43.901Z,16.90
2023-02-06T15:24:05.956Z,13.00
2023-02-06T15:27:02.932Z,15.70
2023-02-06T15:29:52.142Z,12.80
2023-02-06T15:32:41.805Z,13.50
2023-02-06T15:35:40.589Z,14.70
2023-02-06T15:38:33.105Z,13.60
2023-02-06T15:41:21.422Z,14.80
2023-02-06T15:44:35.403Z,15.40
2023-02-06T15:47:23.747Z,16.50
2023-02-06T15:50:21.809Z,14.80
2023-02-06T15:53:21.341Z,18.60
2023-02-06T15:56:32.516Z,19.10
2023-02-06T15:59:25.399Z,17.30
2023-02-06T16:02:41.173Z,17.50
2023-02-06T16:05:31.659Z,15.50
2023-02-06T16:08:39.592Z,17.30
2023-02-06T16:11:51.092Z,19.10
2023-02-06T16:14:52.462Z,26.50
2023-02-06T16:17:42.825Z,26.50
2023-02-06T16:20:40.182Z,27.10
2023-02-06T16:23:43.731Z,26.00
2023-02-06T16:26:41.923Z,22.50
2023-02-06T16:29:34.574Z,18.40
2023-02-06T16:32:28.985Z,15.70
2023-02-06T16:35:19.622Z,14.70
2023-02-06T16:38:13.593Z,15.50
2023-02-06T16:41:02.109Z,16.20
2023-02-06T16:43:51.387Z,17.10
2023-02-06T16:46:39.862Z,19.10
2023-02-06T16:49:29.482Z,20.50
2023-02-06T16:52:31.173Z,21.90
2023-02-06T16:55:29.045Z,23.10
2023-02-06T16:58:27.214Z,20.10
2023-02-06T17:01:26.805Z,13.60
2023-02-06T17:04:19.762Z,16.50
2023-02-06T17:07:21.614Z,14.30
2023-02-06T17:10:19.429Z,14.40
2023-02-06T17:13:26.070Z,14.00
2023-02-06T17:16:24.981Z,13.10
2023-02-06T17:19:18.352Z,16.00
2023-02-06T17:22:11.721Z,17.60
2023-02-06T17:25:01.828Z,20.50
2023-02-06T17:27:53.287Z,20.60
2023-02-06T17:30:44.517Z,20.20
2023-02-06T17:33:32.970Z,25.30
2023-02-06T17:36:29.483Z,25.10
2023-02-06T17:39:17.663Z,24.60
2023-02-06T17:42:08.689Z,23.60
2023-02-06T17:44:56.845Z,24.70
2023-02-06T17:47:44.903Z,18.00
2023-02-06T17:50:34.436Z,24.00
2023-02-06T17:53:22.914Z,31.50
2023-02-06T17:56:13.448Z,30.90
2023-02-06T17:59:02.749Z,41.90
2023-02-06T18:01:51.197Z,36.60
2023-02-06T18:04:40.356Z,34.70
2023-02-06T18:07:31.106Z,23.60
2023-02-06T18:10:24.904Z,37.00
2023-02-06T18:13:13.070Z,34.30
2023-02-06T18:16:01.065Z,38.50
2023-02-06T18:18:50.445Z,39.80
2023-02-06T18:21:38.978Z,32.00
2023-02-06T18:24:27.166Z,25.30
2023-02-06T18:27:16.974Z,21.50
2023-02-06T18:30:11.478Z,16.90
2023-02-06T18:33:02.368Z,19.00
2023-02-06T18:35:51.465Z,19.20
2023-02-06T18:38:40.016Z,18.10
2023-02-06T18:41:50.196Z,17.80
2023-02-06T18:44:42.171Z,19.10
2023-02-06T18:47:34.349Z,19.40
2023-02-06T18:50:23.224Z,21.70
2023-02-06T18:53:11.366Z,17.60
2023-02-06T18:56:01.646Z,18.40
2023-02-06T18:58:50.499Z,14.00
2023-02-06T19:01:40.383Z,13.80
2023-02-06T19:04:28.868Z,12.00
2023-02-06T19:07:19.880Z,13.00
2023-02-06T19:10:13.273Z,13.60
2023-02-06T19:13:01.494Z,10.90
2023-02-06T19:15:51.496Z,13.60
2023-02-06T19:18:45.418Z,15.20
2023-02-06T19:21:33.755Z,11.80
2023-02-06T19:24:23.597Z,13.00
2023-02-06T19:27:13.286Z,14.60
2023-02-06T19:30:05.103Z,14.70
2023-02-06T19:32:55.703Z,9.70
2023-02-06T19:35:44.454Z,12.70
2023-02-06T19:38:33.458Z,13.10
2023-02-06T19:41:27.401Z,12.00
2023-02-06T19:44:18.218Z,10.30
2023-02-06T19:47:06.238Z,12.50
2023-02-06T19:49:56.223Z,12.80
2023-02-06T19:52:44.431Z,16.50
2023-02-06T19:55:32.913Z,17.30
2023-02-06T19:58:25.584Z,18.50
2023-02-06T20:01:17.590Z,16.60
2023-02-06T20:04:06.096Z,16.80
2023-02-06T20:06:56.058Z,14.30
2023-02-06T20:09:44.284Z,11.90
2023-02-06T20:12:32.851Z,14.30
2023-02-06T20:15:25.266Z,12.80
2023-02-06T20:18:13.767Z,11.90
2023-02-06T20:21:05.887Z,14.00
2023-02-06T20:23:56.535Z,13.70
2023-02-06T20:26:45.539Z,15.40
2023-02-06T20:29:38.877Z,14.20
2023-02-06T20:32:27.407Z,11.70
2023-02-06T20:35:15.752Z,10.40
2023-02-06T20:38:05.665Z,13.20
2023-02-06T20:40:54.288Z,9.00
2023-02-06T20:43:42.748Z,11.60
2023-02-06T20:46:36.463Z,10.70
2023-02-06T20:49:31.515Z,11.40
2023-02-06T20:52:19.617Z,9.20
2023-02-06T20:55:08.018Z,10.70
2023-02-06T20:57:56.100Z,9.50
2023-02-06T21:00:44.614Z,12.90
2023-02-06T21:03:32.505Z,12.40
2023-02-06T21:06:23.905Z,11.90
2023-02-06T21:09:12.394Z,10.90
2023-02-06T21:15:30.152Z,11.60
2023-02-06T21:18:20.199Z,11.10
2023-02-06T21:21:14.448Z,12.40
2023-02-06T21:24:04.523Z,11.80
2023-02-06T21:26:52.824Z,10.40
2023-02-06T21:29:41.436Z,12.20
2023-02-06T21:32:30.021Z,11.40
2023-02-06T21:35:22.280Z,14.20
2023-02-06T21:38:13.126Z,13.00
2023-02-06T21:41:16.462Z,12.50
2023-02-06T21:44:05.012Z,14.30
2023-02-06T21:46:54.278Z,11.10
2023-02-06T21:49:42.699Z,10.20
2023-02-06T21:52:31.228Z,11.50
2023-02-06T21:55:21.746Z,10.30
2023-02-06T21:58:10.929Z,11.30
2023-02-06T22:00:59.120Z,11.60
2023-02-06T22:03:48.850Z,10.20
2023-02-06T22:06:37.800Z,13.00
2023-02-06T22:09:26.061Z,12.80
2023-02-06T22:12:14.854Z,11.10
2023-02-06T22:15:02.779Z,10.90
2023-02-06T22:17:50.868Z,8.50
2023-02-06T22:20:38.585Z,8.80
2023-02-06T22:23:27.515Z,9.70
2023-02-06T22:26:18.632Z,8.70
2023-02-06T22:29:13.919Z,9.30
2023-02-06T22:32:04.661Z,8.00
2023-02-06T22:34:54.039Z,12.70
2023-02-06T22:37:44.289Z,8.30
2023-02-06T22:40:32.164Z,7.70
2023-02-06T22:43:19.966Z,8.30
2023-02-06T22:46:11.621Z,7.10
2023-02-06T22:49:00.998Z,8.80
2023-02-06T22:51:48.783Z,9.20
2023-02-06T22:54:37.029Z,8.50
2023-02-06T22:57:25.016Z,6.70
2023-02-06T23:00:17.195Z,7.20
2023-02-06T23:03:05.264Z,7.60
2023-02-06T23:05:53.393Z,10.30
2023-02-06T23:08:43.159Z,9.90
2023-02-06T23:11:32.326Z,8.70
2023-02-06T23:14:23.232Z,8.00
2023-02-06T23:17:11.434Z,9.00
2023-02-06T23:20:01.553Z,9.30
2023-02-06T23:22:49.273Z,9.90
2023-02-06T23:25:44.679Z,8.00
2023-02-06T23:28:32.574Z,9.50
2023-02-06T23:31:20.536Z,7.20
2023-02-06T23:34:08.664Z,10.90
2023-02-06T23:36:56.754Z,10.40
2023-02-06T23:39:44.536Z,8.50
2023-02-06T23:42:32.413Z,8.30
2023-02-06T23:45:20.056Z,7.70
2023-02-06T23:48:08.792Z,9.20
2023-02-06T23:50:57.023Z,9.00
2023-02-06T23:53:45.299Z,9.00
2023-02-06T23:56:33.709Z,9.60
2023-02-06T23:59:21.990Z,9.60
